Time;durP1;ratioP1;P1;durP2;ratioP2;P2;SDS_P1;SDS_P2;PMS_P1;PMS_P2;Temp;Humidity;BMP_temperature;BMP_pressure;BME280_temperature;BME280_humidity;BME280_pressure;Samples;Min_cycle;Max_cycle;Signal;HPM_P1;HPM_P2
2022/03/17 00:02:17;;;;;;;22.98;16.83;;;11.30;99.90;;;;;;7293710;32;20172;-58
2022/03/17 00:06:19;;;;;;;23.08;16.70;;;11.40;99.90;;;;;;7291278;32;20151;-61
2022/03/17 00:10:21;;;;;;;21.60;17.62;;;11.30;99.90;;;;;;7293658;32;20175;-61
2022/03/17 00:14:23;;;;;;;23.20;17.87;;;11.30;99.90;;;;;;7279207;32;20148;-59
2022/03/17 00:18:25;;;;;;;22.20;17.33;;;11.30;99.90;;;;;;7296665;32;20542;-61
2022/03/17 00:22:31;;;;;;;21.50;17.40;;;11.30;99.90;;;;;;7298235;32;20122;-60
2022/03/17 00:26:34;;;;;;;21.20;16.87;;;11.30;99.90;;;;;;7297040;32;20141;-60
2022/03/17 00:30:36;;;;;;;20.80;16.87;;;11.30;99.90;;;;;;7297674;32;20130;-60
2022/03/17 00:35:35;;;;;;;21.52;17.27;;;11.20;99.90;;;;;;7292070;32;20282;-59
2022/03/17 00:39:00;;;;;;;23.70;17.00;;;11.30;99.90;;;;;;7293848;32;20772;-58
2022/03/17 00:43:06;;;;;;;22.73;17.00;;;11.20;99.90;;;;;;7299209;32;20208;-58
2022/03/17 00:47:08;;;;;;;23.55;17.73;;;11.20;99.90;;;;;;7295006;32;20266;-60
2022/03/17 00:51:10;;;;;;;24.83;18.30;;;11.10;99.90;;;;;;7293098;32;20691;-59
2022/03/17 00:55:11;;;;;;;21.52;17.55;;;11.10;99.90;;;;;;7293684;32;20170;-60
2022/03/17 00:59:14;;;;;;;27.02;18.77;;;11.00;99.90;;;;;;7298363;32;20210;-59
2022/03/17 01:03:15;;;;;;;22.30;18.62;;;11.00;99.90;;;;;;7295145;32;20125;-60
2022/03/17 01:07:17;;;;;;;24.12;17.83;;;11.10;99.90;;;;;;7296386;32;20838;-60
2022/03/17 01:11:19;;;;;;;24.98;19.00;;;11.10;99.90;;;;;;7297128;32;20460;-58
2022/03/17 01:15:21;;;;;;;24.25;17.90;;;11.00;99.90;;;;;;7294971;32;20647;-59
2022/03/17 01:19:23;;;;;;;26.17;19.95;;;11.00;99.90;;;;;;7297018;32;20103;-60
2022/03/17 01:23:25;;;;;;;23.55;18.75;;;11.00;99.90;;;;;;7296811;32;20808;-61
2022/03/17 01:27:27;;;;;;;22.73;17.85;;;11.00;99.90;;;;;;7296715;32;20127;-60
2022/03/17 01:31:29;;;;;;;24.35;18.37;;;11.00;99.90;;;;;;7294459;32;20116;-58
2022/03/17 01:35:31;;;;;;;24.70;19.50;;;11.10;99.90;;;;;;7294852;32;20573;-61
2022/03/17 01:39:32;;;;;;;24.02;18.90;;;11.00;99.90;;;;;;7293977;32;20281;-60
2022/03/17 01:43:34;;;;;;;24.90;18.37;;;11.00;99.90;;;;;;7296319;32;20129;-58
2022/03/17 01:47:36;;;;;;;23.33;18.12;;;11.00;99.90;;;;;;7295781;32;20456;-60
2022/03/17 01:51:38;;;;;;;27.45;19.05;;;11.10;99.90;;;;;;7290097;32;20194;-59
2022/03/17 01:55:40;;;;;;;23.58;18.75;;;11.00;99.90;;;;;;7297250;32;20129;-59
2022/03/17 01:59:42;;;;;;;23.77;17.85;;;11.00;99.90;;;;;;7295534;32;20116;-61
2022/03/17 02:03:47;;;;;;;27.15;18.45;;;11.00;99.90;;;;;;7293602;32;20134;-60
2022/03/17 02:07:52;;;;;;;24.77;19.30;;;11.00;99.90;;;;;;7296702;32;20107;-59
2022/03/17 02:16:16;;;;;;;23.85;19.17;;;10.90;99.90;;;;;;7292018;32;20120;-60
2022/03/17 02:20:18;;;;;;;25.35;19.58;;;10.90;99.90;;;;;;7293972;32;20263;-60
2022/03/17 02:28:40;;;;;;;30.88;21.40;;;11.00;99.90;;;;;;7293990;32;20485;-59
2022/03/17 02:32:43;;;;;;;22.62;18.50;;;10.90;99.90;;;;;;7294460;32;20116;-59
2022/03/17 02:36:48;;;;;;;25.08;19.77;;;11.00;99.90;;;;;;7290345;32;20163;-59
2022/03/17 02:40:52;;;;;;;27.00;20.33;;;11.00;99.90;;;;;;7295997;32;20441;-60
2022/03/17 02:44:55;;;;;;;25.88;19.23;;;11.00;99.90;;;;;;7295137;32;20546;-60
2022/03/17 02:48:56;;;;;;;25.90;20.00;;;11.00;99.90;;;;;;7293398;32;20112;-59
2022/03/17 02:53:05;;;;;;;27.98;20.08;;;11.00;99.90;;;;;;7294717;32;20263;-60
2022/03/17 02:57:07;;;;;;;23.90;19.20;;;11.00;99.90;;;;;;7290628;32;20239;-59
2022/03/17 03:06:14;;;;;;;28.38;21.35;;;11.00;99.90;;;;;;7284730;32;20121;-60
2022/03/17 03:10:16;;;;;;;28.55;20.37;;;11.00;99.90;;;;;;7293952;32;20104;-60
2022/03/17 03:14:18;;;;;;;26.08;21.15;;;11.00;99.90;;;;;;7295468;32;20573;-62
2022/03/17 03:18:20;;;;;;;26.90;20.25;;;10.90;99.90;;;;;;7279990;32;20120;-61
2022/03/17 03:22:22;;;;;;;25.08;19.30;;;10.90;99.90;;;;;;7294099;32;20123;-61
2022/03/17 03:26:23;;;;;;;26.98;21.25;;;10.90;99.90;;;;;;7293851;32;20135;-61
2022/03/17 03:30:25;;;;;;;27.58;20.33;;;10.90;99.90;;;;;;7295026;32;20605;-61
2022/03/17 03:34:27;;;;;;;25.70;19.67;;;10.90;99.90;;;;;;7289495;32;20116;-62
2022/03/17 03:38:29;;;;;;;27.35;20.88;;;10.90;99.90;;;;;;7294231;32;20600;-60
2022/03/17 03:42:31;;;;;;;25.37;20.15;;;10.90;99.90;;;;;;7292088;32;20829;-60
2022/03/17 03:46:32;;;;;;;27.58;20.75;;;11.00;99.90;;;;;;7293350;32;20554;-60
2022/03/17 03:50:37;;;;;;;29.60;21.12;;;11.10;99.90;;;;;;7295440;32;20492;-61
2022/03/17 03:54:41;;;;;;;29.25;20.83;;;11.00;99.90;;;;;;7297001;32;20439;-62
2022/03/17 03:58:43;;;;;;;28.33;21.35;;;11.00;99.90;;;;;;7299012;32;20131;-59
2022/03/17 04:02:45;;;;;;;28.92;21.73;;;11.00;99.90;;;;;;7298469;32;22028;-59
2022/03/17 04:06:49;;;;;;;27.60;21.17;;;11.00;99.90;;;;;;7295556;32;20171;-59
2022/03/17 04:10:51;;;;;;;30.95;22.15;;;11.00;99.90;;;;;;7298262;32;20475;-59
2022/03/17 04:14:53;;;;;;;31.23;22.37;;;11.00;99.90;;;;;;7297922;32;20134;-59
2022/03/17 04:18:54;;;;;;;28.65;21.98;;;11.00;99.90;;;;;;7297620;32;20108;-60
2022/03/17 04:22:56;;;;;;;29.05;21.62;;;11.00;99.90;;;;;;7297691;32;20111;-60
2022/03/17 04:26:58;;;;;;;29.35;22.55;;;10.80;99.90;;;;;;7297267;32;20429;-60
2022/03/17 04:31:00;;;;;;;34.42;24.52;;;10.80;99.90;;;;;;7289721;32;20183;-59
2022/03/17 04:35:02;;;;;;;29.63;23.00;;;10.80;99.90;;;;;;7297034;32;20590;-58
2022/03/17 04:39:05;;;;;;;33.28;23.85;;;10.70;99.90;;;;;;7297518;32;20277;-59
2022/03/17 04:43:06;;;;;;;32.90;23.58;;;10.60;99.90;;;;;;7296218;32;20159;-58
2022/03/17 04:47:08;;;;;;;34.90;24.85;;;10.60;99.90;;;;;;7294622;32;20221;-60
2022/03/17 04:51:10;;;;;;;32.95;25.12;;;10.50;99.90;;;;;;7292001;32;20941;-59
2022/03/17 04:55:12;;;;;;;36.15;26.30;;;10.30;99.90;;;;;;7289245;32;20130;-61
2022/03/17 04:59:14;;;;;;;34.33;25.75;;;10.10;99.90;;;;;;7294404;32;20584;-58
2022/03/17 05:03:16;;;;;;;40.40;28.15;;;10.00;99.90;;;;;;7294180;32;20143;-59
2022/03/17 05:07:18;;;;;;;39.80;28.02;;;10.00;99.90;;;;;;7280612;32;20452;-60
2022/03/17 05:11:20;;;;;;;36.65;27.80;;;9.90;99.90;;;;;;7293142;32;20112;-60
2022/03/17 05:15:21;;;;;;;39.90;30.35;;;9.70;99.90;;;;;;7293283;32;20107;-60
2022/03/17 05:19:23;;;;;;;42.65;31.92;;;9.50;99.90;;;;;;7297173;32;20236;-59
2022/03/17 05:23:25;;;;;;;45.53;31.35;;;9.40;99.90;;;;;;7297066;32;20160;-59
2022/03/17 05:27:27;;;;;;;46.10;32.17;;;9.40;99.90;;;;;;7295666;32;20143;-59
2022/03/17 05:31:29;;;;;;;52.72;34.38;;;9.30;99.90;;;;;;7293161;32;20684;-60
2022/03/17 05:35:31;;;;;;;46.58;34.10;;;9.30;99.90;;;;;;7273761;32;20684;-60
2022/03/17 05:39:33;;;;;;;47.97;33.97;;;9.20;99.90;;;;;;7288234;32;20306;-60
2022/03/17 05:43:34;;;;;;;52.53;35.65;;;9.20;99.90;;;;;;7293124;32;20111;-60
2022/03/17 05:47:44;;;;;;;49.47;34.17;;;9.20;99.90;;;;;;7289871;32;20769;-60
2022/03/17 05:51:46;;;;;;;51.78;36.35;;;9.20;99.90;;;;;;7293644;32;20165;-59
2022/03/17 05:55:48;;;;;;;51.15;35.17;;;9.20;99.90;;;;;;7294720;32;20730;-60
2022/03/17 05:59:49;;;;;;;55.25;36.58;;;9.20;99.90;;;;;;7290083;32;20305;-61
2022/03/17 06:03:51;;;;;;;57.30;37.08;;;9.30;99.90;;;;;;7285610;32;20790;-59
2022/03/17 06:07:54;;;;;;;56.35;36.45;;;9.30;99.90;;;;;;7282957;32;20960;-61
2022/03/17 06:11:57;;;;;;;54.67;33.78;;;9.30;99.90;;;;;;7289833;32;20115;-60
2022/03/17 06:15:58;;;;;;;48.13;31.65;;;9.30;99.90;;;;;;7289171;32;20103;-59
2022/03/17 06:20:00;;;;;;;46.53;28.80;;;9.30;99.90;;;;;;7286150;32;20226;-60
2022/03/17 06:24:02;;;;;;;35.65;24.20;;;9.40;99.90;;;;;;7288026;32;20277;-61
2022/03/17 06:28:04;;;;;;;33.53;21.98;;;9.40;99.90;;;;;;7289436;32;20134;-61
2022/03/17 06:32:07;;;;;;;33.55;21.92;;;9.40;99.90;;;;;;7285843;32;20222;-59
2022/03/17 06:36:08;;;;;;;33.50;22.98;;;9.40;99.90;;;;;;7287362;32;20119;-60
2022/03/17 06:40:11;;;;;;;37.28;21.52;;;9.30;99.90;;;;;;7289146;32;20139;-59
2022/03/17 06:44:12;;;;;;;36.67;23.27;;;9.20;99.90;;;;;;7282532;32;20115;-59
2022/03/17 06:48:14;;;;;;;40.92;26.45;;;9.10;99.90;;;;;;7288817;32;20107;-60
2022/03/17 06:52:16;;;;;;;43.63;25.42;;;9.00;99.90;;;;;;7292836;32;20134;-59
2022/03/17 06:56:17;;;;;;;38.58;25.33;;;8.90;99.90;;;;;;7288947;32;20130;-58
2022/03/17 07:00:20;;;;;;;38.47;24.90;;;8.90;99.90;;;;;;7287757;32;20222;-60
2022/03/17 07:04:21;;;;;;;40.92;23.75;;;8.80;99.90;;;;;;7289944;32;20338;-61
2022/03/17 07:08:23;;;;;;;36.60;25.00;;;8.70;99.90;;;;;;7288211;32;20138;-61
2022/03/17 07:12:25;;;;;;;32.25;18.73;;;8.70;99.90;;;;;;7287982;32;20120;-61
2022/03/17 07:16:27;;;;;;;36.67;21.25;;;8.70;99.90;;;;;;7294429;32;20112;-59
2022/03/17 07:20:28;;;;;;;32.63;20.92;;;8.60;99.90;;;;;;7292637;32;20134;-61
2022/03/17 07:24:30;;;;;;;32.80;19.50;;;8.40;99.90;;;;;;7291625;32;20433;-61
2022/03/17 07:28:32;;;;;;;30.37;18.75;;;8.30;99.90;;;;;;7290392;32;20441;-61
2022/03/17 07:32:33;;;;;;;30.85;18.55;;;8.20;99.90;;;;;;7288110;32;20167;-61
2022/03/17 07:36:35;;;;;;;31.87;18.27;;;8.20;99.90;;;;;;7290653;32;20805;-59
2022/03/17 07:40:37;;;;;;;28.55;16.98;;;8.10;99.90;;;;;;7290699;32;20138;-61
2022/03/17 07:44:40;;;;;;;26.50;16.08;;;8.10;99.90;;;;;;7292285;32;20108;-61
2022/03/17 07:48:43;;;;;;;32.17;14.60;;;8.00;99.90;;;;;;7291765;32;20128;-60
2022/03/17 07:52:46;;;;;;;23.12;12.82;;;8.00;99.90;;;;;;7289926;32;20868;-59
2022/03/17 07:56:48;;;;;;;21.10;9.00;;;7.90;99.90;;;;;;7290638;32;20207;-59
2022/03/17 08:00:51;;;;;;;23.42;9.13;;;7.80;99.90;;;;;;7291346;32;20217;-60
2022/03/17 08:04:53;;;;;;;14.95;7.22;;;7.80;99.90;;;;;;7292889;32;20186;-61
2022/03/17 08:08:56;;;;;;;15.68;7.35;;;7.90;99.90;;;;;;7280547;32;20112;-60
2022/03/17 08:13:01;;;;;;;17.02;6.55;;;7.90;99.90;;;;;;7293052;32;20266;-62
2022/03/17 08:17:04;;;;;;;14.73;5.95;;;7.80;99.90;;;;;;7291886;32;20135;-59
2022/03/17 08:21:06;;;;;;;13.30;6.20;;;7.70;99.90;;;;;;7292497;32;20170;-61
2022/03/17 08:25:08;;;;;;;10.00;4.70;;;7.70;99.90;;;;;;7288512;32;20587;-61
2022/03/17 08:29:10;;;;;;;8.82;4.70;;;7.70;99.90;;;;;;7291656;32;20199;-60
2022/03/17 08:33:13;;;;;;;9.80;3.95;;;7.70;99.90;;;;;;7291368;32;20133;-60
2022/03/17 08:37:15;;;;;;;13.05;4.12;;;7.60;99.90;;;;;;7289293;32;20112;-60
2022/03/17 08:41:17;;;;;;;10.57;3.53;;;7.70;99.90;;;;;;7289723;32;20104;-59
2022/03/17 08:49:39;;;;;;;7.40;3.03;;;7.70;99.90;;;;;;7292670;32;20135;-59
2022/03/17 08:53:40;;;;;;;10.35;3.72;;;7.70;99.90;;;;;;7287354;32;20689;-61
2022/03/17 08:57:42;;;;;;;11.45;3.45;;;7.80;99.90;;;;;;7284599;32;20702;-61
2022/03/17 09:01:44;;;;;;;8.73;3.47;;;7.70;99.90;;;;;;7287725;32;20235;-60
2022/03/17 09:05:46;;;;;;;7.57;3.42;;;7.80;99.90;;;;;;7288636;32;20241;-61
2022/03/17 09:09:48;;;;;;;8.07;3.10;;;7.90;99.90;;;;;;7292570;32;20150;-59
2022/03/17 09:13:50;;;;;;;7.22;3.83;;;7.90;99.90;;;;;;7294578;32;20633;-61
2022/03/17 09:17:52;;;;;;;11.95;4.00;;;7.90;99.90;;;;;;7287595;32;20108;-60
2022/03/17 09:21:54;;;;;;;12.43;3.35;;;7.90;99.90;;;;;;7288009;32;20126;-59
2022/03/17 09:25:57;;;;;;;10.43;3.33;;;8.00;99.90;;;;;;7292344;32;20202;-61
2022/03/17 09:29:58;;;;;;;8.50;3.90;;;8.00;99.90;;;;;;7284690;32;20341;-61
2022/03/17 09:34:00;;;;;;;7.62;3.72;;;8.10;99.90;;;;;;7292692;32;20209;-59
2022/03/17 09:38:04;;;;;;;7.72;2.53;;;8.10;99.90;;;;;;7286174;32;20618;-61
2022/03/17 09:42:05;;;;;;;8.02;2.70;;;8.20;99.90;;;;;;7288604;32;20115;-60
2022/03/17 09:46:09;;;;;;;8.95;2.40;;;8.20;99.90;;;;;;7282039;32;20679;-61
2022/03/17 09:50:14;;;;;;;7.20;2.55;;;8.20;99.90;;;;;;7285570;32;20206;-60
2022/03/17 09:54:16;;;;;;;7.50;2.17;;;8.10;99.90;;;;;;7284261;32;20828;-61
2022/03/17 09:58:18;;;;;;;8.95;2.50;;;8.20;99.90;;;;;;7290788;32;20108;-62
2022/03/17 10:02:20;;;;;;;10.02;3.67;;;8.30;99.90;;;;;;7291549;32;20139;-61
2022/03/17 10:06:23;;;;;;;9.32;3.90;;;8.30;99.90;;;;;;7303165;32;20437;-61
2022/03/17 10:10:38;;;;;;;11.02;5.07;;;8.40;99.90;;;;;;7297876;32;20305;-60
2022/03/17 10:14:52;;;;;;;9.88;5.10;;;8.50;99.90;;;;;;7288893;32;20344;-60
2022/03/17 10:19:02;;;;;;;12.50;4.85;;;8.40;99.90;;;;;;7291492;32;20111;-60
2022/03/17 10:23:06;;;;;;;13.70;4.40;;;8.50;99.90;;;;;;7288518;32;20116;-62
2022/03/17 10:27:07;;;;;;;10.80;5.22;;;8.50;99.90;;;;;;7290631;32;20146;-61
2022/03/17 10:31:11;;;;;;;10.13;4.20;;;8.40;99.90;;;;;;7287015;32;20239;-60
2022/03/17 10:35:22;;;;;;;8.60;2.60;;;8.50;99.90;;;;;;7294215;32;20219;-60
2022/03/17 10:39:35;;;;;;;9.52;2.42;;;8.50;99.90;;;;;;7289374;32;20138;-61
2022/03/17 10:43:39;;;;;;;10.07;4.70;;;8.60;99.90;;;;;;7292489;32;20131;-64
2022/03/17 10:47:44;;;;;;;11.77;3.72;;;8.50;99.90;;;;;;7295168;32;20137;-62
2022/03/17 10:51:46;;;;;;;11.82;3.33;;;8.50;99.90;;;;;;7294151;32;20103;-61
2022/03/17 10:55:49;;;;;;;7.22;2.50;;;8.60;99.90;;;;;;7287542;32;20131;-62
2022/03/17 10:59:53;;;;;;;8.38;2.30;;;8.60;99.90;;;;;;7293011;32;20389;-63
2022/03/17 11:03:55;;;;;;;11.57;3.28;;;8.40;99.90;;;;;;7288830;32;20815;-60
2022/03/17 11:07:58;;;;;;;7.75;2.10;;;8.40;99.90;;;;;;7291524;32;20134;-60
2022/03/17 11:12:01;;;;;;;15.13;2.30;;;8.40;99.90;;;;;;7292824;32;20207;-61
2022/03/17 11:16:07;;;;;;;8.15;2.35;;;8.40;99.90;;;;;;7292700;32;20577;-63
2022/03/17 11:20:16;;;;;;;8.80;2.72;;;8.60;99.90;;;;;;7288261;32;20222;-60
2022/03/17 11:24:22;;;;;;;11.02;2.42;;;8.70;99.90;;;;;;7292581;32;20155;-62
2022/03/17 11:28:36;;;;;;;11.30;1.90;;;9.30;99.90;;;;;;7287797;32;20238;-61
2022/03/17 11:32:47;;;;;;;8.65;1.75;;;9.70;99.90;;;;;;7287921;32;20138;-62
2022/03/17 11:37:36;;;;;;;6.68;2.05;;;9.80;99.90;;;;;;7292354;32;20672;-62
2022/03/17 11:41:42;;;;;;;5.57;1.73;;;10.00;99.90;;;;;;7287962;32;20339;-61
2022/03/17 11:45:43;;;;;;;7.03;1.48;;;10.00;99.90;;;;;;7287894;32;20134;-62
2022/03/17 11:49:46;;;;;;;9.27;1.80;;;9.90;99.90;;;;;;7290833;32;20771;-61
2022/03/17 11:54:05;;;;;;;5.90;1.90;;;9.80;99.90;;;;;;7293705;32;20131;-62
2022/03/17 11:58:29;;;;;;;8.45;1.75;;;9.90;99.90;;;;;;7292067;32;20230;-60
2022/03/17 12:02:31;;;;;;;5.95;1.25;;;10.30;99.90;;;;;;7290918;32;20253;-62
2022/03/17 12:06:34;;;;;;;7.18;1.80;;;10.40;99.90;;;;;;7290689;32;20241;-63
2022/03/17 12:11:14;;;;;;;7.00;1.25;;;10.30;99.90;;;;;;7294453;32;20131;-62
2022/03/17 12:15:36;;;;;;;7.90;1.40;;;10.70;99.90;;;;;;7289235;32;20228;-62
2022/03/17 12:19:48;;;;;;;10.00;1.60;;;11.10;99.90;;;;;;7287852;32;20230;-62
2022/03/17 12:23:50;;;;;;;6.37;1.55;;;11.20;99.90;;;;;;7295476;32;20818;-61
2022/03/17 12:27:58;;;;;;;6.78;1.90;;;11.30;99.90;;;;;;7289859;32;20119;-62
2022/03/17 12:32:08;;;;;;;12.57;1.77;;;11.20;99.90;;;;;;7292973;32;20159;-62
2022/03/17 12:36:12;;;;;;;7.72;1.58;;;11.00;99.90;;;;;;7295079;32;20774;-62
2022/03/17 12:40:19;;;;;;;8.07;2.80;;;10.80;99.90;;;;;;7295941;32;20104;-61
2022/03/17 12:44:25;;;;;;;5.50;1.30;;;10.80;99.90;;;;;;7286807;32;20243;-62
2022/03/17 12:48:28;;;;;;;9.57;1.30;;;10.90;99.90;;;;;;7296501;32;20186;-61
2022/03/17 12:52:31;;;;;;;15.52;1.50;;;10.80;99.90;;;;;;7295488;32;20150;-61
2022/03/17 12:56:51;;;;;;;12.68;2.20;;;10.60;99.90;;;;;;7268744;32;20532;-62
2022/03/17 13:00:53;;;;;;;10.57;2.15;;;10.40;99.90;;;;;;7286909;32;20098;-63
2022/03/17 13:06:53;;;;;;;5.65;1.45;;;10.50;99.90;;;;;;7289545;32;20833;-63
2022/03/17 13:09:30;;;;;;;12.63;2.08;;;10.70;99.90;;;;;;7289740;32;20314;-62
2022/03/17 13:18:05;;;;;;;8.27;1.70;;;10.40;99.90;;;;;;7293870;32;20673;-62
2022/03/17 13:22:06;;;;;;;5.90;1.50;;;10.40;99.90;;;;;;7292685;32;20124;-63
2022/03/17 13:26:09;;;;;;;8.52;2.08;;;10.10;99.90;;;;;;7295303;32;20104;-61
2022/03/17 13:30:20;;;;;;;8.57;1.80;;;10.10;99.90;;;;;;7294108;32;20207;-61
2022/03/17 13:34:38;;;;;;;4.62;1.20;;;10.00;99.90;;;;;;7294259;32;20127;-61
2022/03/17 13:38:39;;;;;;;7.00;1.80;;;10.00;99.90;;;;;;7292155;32;20130;-61
2022/03/17 13:43:00;;;;;;;10.30;1.85;;;9.90;99.90;;;;;;7293222;32;20498;-61
2022/03/17 13:47:24;;;;;;;11.32;3.05;;;9.90;99.90;;;;;;7288335;32;20108;-62
2022/03/17 13:51:28;;;;;;;12.73;2.92;;;10.10;99.90;;;;;;7289999;32;20127;-61
2022/03/17 13:55:35;;;;;;;10.93;2.00;;;10.10;99.90;;;;;;7290296;32;20143;-61
2022/03/17 13:59:41;;;;;;;9.45;2.28;;;10.10;99.90;;;;;;7286627;32;20128;-62
2022/03/17 14:03:50;;;;;;;8.60;2.10;;;10.20;99.90;;;;;;7287100;32;20209;-62
2022/03/17 14:07:51;;;;;;;12.02;2.72;;;10.20;99.90;;;;;;7284245;32;20270;-61
2022/03/17 14:11:53;;;;;;;10.45;2.60;;;10.30;99.90;;;;;;7294577;32;20256;-60
2022/03/17 14:15:55;;;;;;;10.35;2.40;;;10.20;99.90;;;;;;7285458;32;20674;-61
2022/03/17 14:19:56;;;;;;;17.10;2.33;;;10.20;99.90;;;;;;7291580;32;20151;-61
2022/03/17 14:24:12;;;;;;;9.43;2.08;;;9.90;99.90;;;;;;7290511;32;20127;-61
2022/03/17 14:28:15;;;;;;;8.60;2.25;;;10.00;99.90;;;;;;7291503;32;20113;-62
2022/03/17 14:32:17;;;;;;;8.20;2.50;;;10.00;99.90;;;;;;7293095;32;20668;-62
2022/03/17 14:36:20;;;;;;;11.18;2.50;;;10.00;99.90;;;;;;7289968;32;20103;-62
2022/03/17 14:40:21;;;;;;;15.18;2.80;;;10.00;99.90;;;;;;7292931;32;20226;-62
2022/03/17 14:44:23;;;;;;;8.75;2.58;;;10.00;99.90;;;;;;7293210;32;20154;-62
2022/03/17 14:48:25;;;;;;;11.52;2.92;;;10.10;99.90;;;;;;7288025;32;20701;-62
2022/03/17 14:52:26;;;;;;;9.57;2.97;;;10.00;99.90;;;;;;7290877;32;20126;-62
2022/03/17 14:56:28;;;;;;;10.68;2.35;;;10.00;99.90;;;;;;7292599;32;20138;-61
2022/03/17 15:00:30;;;;;;;8.18;2.30;;;10.10;99.90;;;;;;7290864;32;20558;-61
2022/03/17 15:04:32;;;;;;;9.15;2.30;;;9.90;99.90;;;;;;7290697;32;20610;-61
2022/03/17 15:08:43;;;;;;;12.40;2.90;;;9.90;99.90;;;;;;7285756;32;20289;-64
2022/03/17 15:12:44;;;;;;;7.35;3.25;;;10.10;99.90;;;;;;7292014;32;20099;-63
2022/03/17 15:16:46;;;;;;;9.00;3.53;;;10.00;99.90;;;;;;7290035;32;20120;-63
2022/03/17 15:20:52;;;;;;;6.75;3.47;;;9.70;99.90;;;;;;7288244;32;20123;-62
2022/03/17 15:24:55;;;;;;;7.95;3.83;;;9.80;99.90;;;;;;7291257;32;20167;-62
2022/03/17 15:33:17;;;;;;;8.48;4.03;;;9.60;99.90;;;;;;7288712;32;20199;-62
2022/03/17 15:37:19;;;;;;;12.52;3.47;;;9.80;99.90;;;;;;7291764;32;20104;-63
2022/03/17 15:41:21;;;;;;;7.57;3.05;;;9.70;99.90;;;;;;7288342;32;20234;-61
2022/03/17 15:45:22;;;;;;;9.27;3.30;;;9.70;99.90;;;;;;7294811;32;20180;-61
2022/03/17 15:49:24;;;;;;;9.75;3.30;;;9.70;99.90;;;;;;7296784;32;20137;-62
2022/03/17 15:53:26;;;;;;;14.90;3.35;;;9.70;99.90;;;;;;7296783;32;20111;-62
2022/03/17 15:57:27;;;;;;;8.48;3.30;;;9.70;99.90;;;;;;7296497;32;20634;-63
2022/03/17 16:01:29;;;;;;;8.23;3.12;;;9.50;99.90;;;;;;7296873;32;20569;-63
2022/03/17 16:05:32;;;;;;;9.02;2.90;;;9.50;99.90;;;;;;7289160;32;20234;-62
2022/03/17 16:18:15;;;;;;;6.57;3.12;;;9.30;99.90;;;;;;7296020;32;20196;-62
2022/03/17 16:22:17;;;;;;;12.23;3.05;;;9.20;99.90;;;;;;7294418;32;20177;-63
2022/03/17 16:26:19;;;;;;;11.10;3.53;;;9.10;99.90;;;;;;7294916;32;20100;-63
2022/03/17 16:30:21;;;;;;;13.23;3.45;;;9.00;99.90;;;;;;7294133;32;20617;-61
2022/03/17 16:34:23;;;;;;;9.48;2.60;;;8.90;99.90;;;;;;7294556;32;20218;-62
2022/03/17 16:38:25;;;;;;;6.30;2.83;;;8.80;99.90;;;;;;7294379;32;20131;-63
2022/03/17 16:42:27;;;;;;;11.98;3.22;;;8.70;99.90;;;;;;7287299;32;20217;-61
2022/03/17 16:46:28;;;;;;;11.35;3.10;;;8.60;99.90;;;;;;7293790;32;20203;-62
2022/03/17 16:50:30;;;;;;;6.12;2.67;;;8.40;99.90;;;;;;7295202;32;20104;-62
2022/03/17 16:54:32;;;;;;;9.25;2.72;;;8.40;99.90;;;;;;7291184;32;20217;-62
2022/03/17 16:58:34;;;;;;;12.95;3.40;;;8.20;99.90;;;;;;7289974;32;20193;-61
2022/03/17 17:02:36;;;;;;;7.45;3.40;;;8.10;99.90;;;;;;7290510;32;20210;-63
2022/03/17 17:06:38;;;;;;;13.62;3.33;;;8.00;99.90;;;;;;7295494;32;20100;-62
2022/03/17 17:10:39;;;;;;;8.02;3.65;;;7.80;99.90;;;;;;7297056;32;20101;-62
2022/03/17 17:14:41;;;;;;;8.90;3.12;;;7.70;99.90;;;;;;7294406;32;20513;-61
2022/03/17 17:18:43;;;;;;;8.15;3.90;;;7.60;99.90;;;;;;7293085;32;20503;-62
2022/03/17 17:31:26;;;;;;;9.13;3.67;;;7.20;99.90;;;;;;7294257;32;20476;-61
2022/03/17 17:35:29;;;;;;;10.85;4.25;;;7.10;99.90;;;;;;7294391;32;20190;-62
2022/03/17 17:39:30;;;;;;;9.15;3.75;;;7.00;99.90;;;;;;7296014;32;20130;-61
2022/03/17 17:43:35;;;;;;;11.95;3.70;;;6.90;99.90;;;;;;7295785;32;20516;-61
2022/03/17 17:47:38;;;;;;;12.15;4.10;;;6.80;99.90;;;;;;7293842;32;20127;-62
2022/03/17 17:51:40;;;;;;;15.13;5.00;;;6.60;99.90;;;;;;7289574;32;20108;-60
2022/03/17 17:55:42;;;;;;;14.48;5.05;;;6.50;99.90;;;;;;7293104;32;20127;-60
2022/03/17 17:59:44;;;;;;;7.53;4.15;;;6.40;99.90;;;;;;7292053;32;20100;-61
2022/03/17 18:03:46;;;;;;;9.65;3.90;;;6.30;99.90;;;;;;7288168;32;20558;-61
2022/03/17 18:07:47;;;;;;;12.68;4.62;;;6.20;99.90;;;;;;7291408;32;20266;-60
2022/03/17 18:11:49;;;;;;;15.68;5.43;;;6.10;99.90;;;;;;7284992;32;20159;-60
2022/03/17 18:15:52;;;;;;;14.35;4.43;;;6.00;99.90;;;;;;7291517;32;20802;-62
2022/03/17 18:19:53;;;;;;;10.60;4.80;;;5.90;99.90;;;;;;7284926;32;20103;-60
2022/03/17 18:23:55;;;;;;;9.75;4.45;;;5.80;99.90;;;;;;7292136;32;20483;-60
2022/03/17 18:27:58;;;;;;;10.98;4.12;;;5.70;99.90;;;;;;7289365;32;20676;-61
2022/03/17 18:31:59;;;;;;;9.68;4.68;;;5.60;99.90;;;;;;7288430;32;20177;-61
2022/03/17 18:36:01;;;;;;;11.12;4.30;;;5.50;99.90;;;;;;7286613;32;20115;-62
2022/03/17 18:40:03;;;;;;;17.90;5.28;;;5.40;99.90;;;;;;7285295;32;20195;-63
2022/03/17 18:44:05;;;;;;;13.57;4.50;;;5.30;99.90;;;;;;7286716;32;20132;-61
2022/03/17 18:48:07;;;;;;;11.70;4.28;;;5.20;99.90;;;;;;7288813;32;20136;-60
2022/03/17 18:52:09;;;;;;;13.13;4.55;;;5.10;99.90;;;;;;7293638;32;20108;-60
2022/03/17 18:56:10;;;;;;;8.82;3.97;;;5.10;99.90;;;;;;7290828;32;20119;-60
2022/03/17 19:00:12;;;;;;;10.75;4.70;;;5.00;99.90;;;;;;7289773;32;20828;-60
2022/03/17 19:04:15;;;;;;;13.15;4.90;;;4.90;99.90;;;;;;7291133;32;20103;-61
2022/03/17 19:08:18;;;;;;;12.90;4.32;;;4.90;99.90;;;;;;7290668;32;20115;-60
2022/03/17 19:12:20;;;;;;;9.13;5.00;;;4.80;99.90;;;;;;7282968;32;20132;-62
2022/03/17 19:16:23;;;;;;;10.77;5.32;;;4.70;99.90;;;;;;7283739;32;20211;-57
2022/03/17 19:20:25;;;;;;;12.77;5.20;;;4.70;99.90;;;;;;7279241;32;20507;-62
2022/03/17 19:24:26;;;;;;;9.18;5.40;;;4.60;99.90;;;;;;7287065;32;20100;-62
2022/03/17 19:28:28;;;;;;;11.98;4.82;;;4.60;99.90;;;;;;7293993;32;20126;-61
2022/03/17 19:32:31;;;;;;;9.70;4.50;;;4.50;99.90;;;;;;7289886;32;20096;-62
2022/03/17 19:36:32;;;;;;;14.82;5.60;;;4.50;99.90;;;;;;7289122;32;20279;-62
2022/03/17 19:44:58;;;;;;;13.82;5.43;;;4.30;99.90;;;;;;7285545;32;21305;-61
2022/03/17 19:48:59;;;;;;;16.42;8.57;;;4.30;99.90;;;;;;7286608;32;20558;-61
2022/03/17 19:53:02;;;;;;;12.52;4.87;;;4.20;99.90;;;;;;7288261;32;20118;-63
2022/03/17 19:57:04;;;;;;;11.85;5.00;;;4.20;99.90;;;;;;7290745;32;20107;-61
2022/03/17 20:01:08;;;;;;;13.55;4.53;;;4.10;99.90;;;;;;7288393;32;20728;-62
2022/03/17 20:05:30;;;;;;;10.32;4.50;;;4.10;99.90;;;;;;7290716;32;20119;-62
2022/03/17 20:09:32;;;;;;;9.35;4.50;;;4.00;99.90;;;;;;7289172;32;20323;-62
2022/03/17 20:13:43;;;;;;;10.93;5.20;;;4.00;99.90;;;;;;7290982;32;20559;-61
2022/03/17 20:17:45;;;;;;;22.30;10.05;;;4.00;99.90;;;;;;7291948;32;20123;-61
2022/03/17 20:21:47;;;;;;;31.70;15.70;;;3.90;99.90;;;;;;7290629;32;20099;-60
2022/03/17 20:25:48;;;;;;;22.17;13.05;;;3.80;99.90;;;;;;7289681;32;20100;-61
2022/03/17 20:29:51;;;;;;;17.02;9.65;;;3.80;99.90;;;;;;7295390;32;20468;-61
2022/03/17 20:33:56;;;;;;;15.38;6.82;;;3.80;99.90;;;;;;7296112;32;20264;-62
2022/03/17 20:38:03;;;;;;;12.35;6.35;;;3.70;99.90;;;;;;7291693;32;20190;-61
2022/03/17 20:42:05;;;;;;;9.90;5.75;;;3.60;99.90;;;;;;7296788;32;20876;-61
2022/03/17 20:46:08;;;;;;;10.65;5.70;;;3.60;99.90;;;;;;7295144;32;20105;-60
2022/03/17 20:50:10;;;;;;;13.35;5.60;;;3.60;99.90;;;;;;7288647;32;20210;-61
2022/03/17 20:54:12;;;;;;;12.73;6.55;;;3.60;99.90;;;;;;7295163;32;20485;-61
2022/03/17 20:58:14;;;;;;;12.35;6.70;;;3.40;99.90;;;;;;7296649;32;20104;-61
2022/03/17 21:02:15;;;;;;;22.00;6.95;;;3.40;99.90;;;;;;7295510;32;20535;-63
2022/03/17 21:06:25;;;;;;;11.43;6.15;;;3.40;99.90;;;;;;7295198;32;20808;-61
2022/03/17 21:10:31;;;;;;;16.20;6.43;;;3.40;99.90;;;;;;7296722;32;20192;-60
2022/03/17 21:14:35;;;;;;;11.30;6.80;;;3.30;99.90;;;;;;7297048;32;20520;-61
2022/03/17 21:18:36;;;;;;;12.30;6.03;;;3.30;99.90;;;;;;7294425;32;20475;-62
2022/03/17 21:22:38;;;;;;;10.60;6.18;;;3.30;99.90;;;;;;7283371;32;20330;-61
2022/03/17 21:26:40;;;;;;;11.60;7.07;;;3.30;99.90;;;;;;7296649;32;20159;-61
2022/03/17 21:30:41;;;;;;;9.82;6.20;;;3.20;99.90;;;;;;7296767;32;20112;-61
2022/03/17 21:34:46;;;;;;;14.32;6.55;;;3.20;99.90;;;;;;7292133;32;20122;-63
2022/03/17 21:38:49;;;;;;;12.65;6.22;;;3.10;99.90;;;;;;7291469;32;20133;-62
2022/03/17 21:42:51;;;;;;;20.08;11.23;;;3.10;99.90;;;;;;7290413;32;20104;-61
2022/03/17 21:46:54;;;;;;;12.02;7.93;;;3.00;99.90;;;;;;7287885;32;20502;-62
2022/03/17 21:50:56;;;;;;;11.82;6.78;;;3.00;99.90;;;;;;7288919;32;20131;-61